sensor_id;sensor_type;location;lat;lon;timestamp;P1;durP1;ratioP1;P2;durP2;ratioP2
15645;SDS011;7922;43.622;1.476;2023-08-06T00:00:16;5.57;;;2.77;;
15645;SDS011;7922;43.622;1.476;2023-08-06T00:02:41;5.43;;;3.10;;
15645;SDS011;7922;43.622;1.476;2023-08-06T00:05:07;5.60;;;3.03;;
15645;SDS011;7922;43.622;1.476;2023-08-06T00:07:32;4.13;;;2.67;;
15645;SDS011;7922;43.622;1.476;2023-08-06T00:09:57;4.37;;;3.30;;
15645;SDS011;7922;43.622;1.476;2023-08-06T00:12:23;4.53;;;3.00;;
15645;SDS011;7922;43.622;1.476;2023-08-06T00:14:51;5.30;;;2.80;;
15645;SDS011;7922;43.622;1.476;2023-08-06T00:17:17;4.60;;;2.80;;
15645;SDS011;7922;43.622;1.476;2023-08-06T00:19:43;4.67;;;2.77;;
15645;SDS011;7922;43.622;1.476;2023-08-06T00:22:08;3.93;;;2.70;;
15645;SDS011;7922;43.622;1.476;2023-08-06T00:24:34;5.03;;;2.80;;
15645;SDS011;7922;43.622;1.476;2023-08-06T00:26:59;4.93;;;2.70;;
15645;SDS011;7922;43.622;1.476;2023-08-06T00:29:25;3.57;;;2.83;;
15645;SDS011;7922;43.622;1.476;2023-08-06T00:31:50;4.80;;;3.07;;
15645;SDS011;7922;43.622;1.476;2023-08-06T00:34:15;4.60;;;3.17;;
15645;SDS011;7922;43.622;1.476;2023-08-06T00:36:40;3.97;;;3.17;;
15645;SDS011;7922;43.622;1.476;2023-08-06T00:39:06;5.50;;;3.10;;
15645;SDS011;7922;43.622;1.476;2023-08-06T00:41:31;7.17;;;3.30;;
15645;SDS011;7922;43.622;1.476;2023-08-06T00:43:56;6.37;;;3.13;;
15645;SDS011;7922;43.622;1.476;2023-08-06T00:46:22;6.40;;;3.23;;
15645;SDS011;7922;43.622;1.476;2023-08-06T00:48:47;9.23;;;3.87;;
15645;SDS011;7922;43.622;1.476;2023-08-06T00:51:12;6.87;;;2.97;;
15645;SDS011;7922;43.622;1.476;2023-08-06T00:53:39;6.03;;;2.70;;
15645;SDS011;7922;43.622;1.476;2023-08-06T00:56:05;5.37;;;3.13;;
15645;SDS011;7922;43.622;1.476;2023-08-06T00:58:32;5.50;;;2.90;;
15645;SDS011;7922;43.622;1.476;2023-08-06T01:00:57;5.53;;;2.70;;
15645;SDS011;7922;43.622;1.476;2023-08-06T01:03:22;4.87;;;3.13;;
15645;SDS011;7922;43.622;1.476;2023-08-06T01:05:48;8.63;;;2.97;;
15645;SDS011;7922;43.622;1.476;2023-08-06T01:14:18;6.37;;;2.70;;
15645;SDS011;7922;43.622;1.476;2023-08-06T01:16:52;10.43;;;2.60;;
15645;SDS011;7922;43.622;1.476;2023-08-06T01:19:19;6.43;;;2.50;;
15645;SDS011;7922;43.622;1.476;2023-08-06T01:21:45;8.07;;;2.37;;
15645;SDS011;7922;43.622;1.476;2023-08-06T01:24:10;9.07;;;2.87;;
15645;SDS011;7922;43.622;1.476;2023-08-06T01:26:39;8.77;;;2.20;;
15645;SDS011;7922;43.622;1.476;2023-08-06T01:31:41;7.03;;;2.60;;
15645;SDS011;7922;43.622;1.476;2023-08-06T01:34:17;11.00;;;3.27;;
15645;SDS011;7922;43.622;1.476;2023-08-06T01:36:45;9.77;;;3.07;;
15645;SDS011;7922;43.622;1.476;2023-08-06T01:39:11;10.03;;;2.70;;
15645;SDS011;7922;43.622;1.476;2023-08-06T01:41:36;12.40;;;3.13;;
15645;SDS011;7922;43.622;1.476;2023-08-06T01:44:01;12.50;;;3.60;;
15645;SDS011;7922;43.622;1.476;2023-08-06T01:46:27;7.97;;;3.00;;
15645;SDS011;7922;43.622;1.476;2023-08-06T01:48:52;10.53;;;3.47;;
15645;SDS011;7922;43.622;1.476;2023-08-06T01:51:17;9.27;;;2.97;;
15645;SDS011;7922;43.622;1.476;2023-08-06T01:53:43;11.30;;;3.80;;
15645;SDS011;7922;43.622;1.476;2023-08-06T01:56:08;10.80;;;2.87;;
15645;SDS011;7922;43.622;1.476;2023-08-06T01:58:33;7.47;;;2.73;;
15645;SDS011;7922;43.622;1.476;2023-08-06T02:00:58;14.70;;;3.37;;
15645;SDS011;7922;43.622;1.476;2023-08-06T02:03:24;11.43;;;2.57;;
15645;SDS011;7922;43.622;1.476;2023-08-06T02:05:49;11.07;;;3.33;;
15645;SDS011;7922;43.622;1.476;2023-08-06T02:08:14;8.97;;;2.47;;
15645;SDS011;7922;43.622;1.476;2023-08-06T02:10:40;11.70;;;2.77;;
15645;SDS011;7922;43.622;1.476;2023-08-06T02:13:05;12.53;;;3.10;;
15645;SDS011;7922;43.622;1.476;2023-08-06T02:15:30;10.37;;;2.63;;
15645;SDS011;7922;43.622;1.476;2023-08-06T02:17:55;7.73;;;3.03;;
15645;SDS011;7922;43.622;1.476;2023-08-06T02:20:21;10.40;;;2.87;;
15645;SDS011;7922;43.622;1.476;2023-08-06T02:22:46;10.63;;;3.07;;
15645;SDS011;7922;43.622;1.476;2023-08-06T02:25:11;14.37;;;2.90;;
15645;SDS011;7922;43.622;1.476;2023-08-06T02:27:37;9.60;;;2.67;;
15645;SDS011;7922;43.622;1.476;2023-08-06T02:30:02;10.57;;;3.00;;
15645;SDS011;7922;43.622;1.476;2023-08-06T02:32:28;8.97;;;2.53;;
15645;SDS011;7922;43.622;1.476;2023-08-06T02:34:54;11.27;;;2.70;;
15645;SDS011;7922;43.622;1.476;2023-08-06T02:37:19;14.47;;;2.97;;
15645;SDS011;7922;43.622;1.476;2023-08-06T02:39:44;12.57;;;2.73;;
15645;SDS011;7922;43.622;1.476;2023-08-06T02:42:10;9.97;;;2.83;;
15645;SDS011;7922;43.622;1.476;2023-08-06T02:44:35;10.33;;;3.00;;
15645;SDS011;7922;43.622;1.476;2023-08-06T02:47:00;10.27;;;2.90;;
15645;SDS011;7922;43.622;1.476;2023-08-06T02:49:26;9.53;;;3.33;;
15645;SDS011;7922;43.622;1.476;2023-08-06T02:51:52;12.43;;;3.93;;
15645;SDS011;7922;43.622;1.476;2023-08-06T02:54:20;9.57;;;2.70;;
15645;SDS011;7922;43.622;1.476;2023-08-06T02:56:45;13.13;;;3.40;;
15645;SDS011;7922;43.622;1.476;2023-08-06T02:59:11;11.30;;;3.00;;
15645;SDS011;7922;43.622;1.476;2023-08-06T03:01:36;7.73;;;2.53;;
15645;SDS011;7922;43.622;1.476;2023-08-06T03:04:02;11.10;;;3.40;;
15645;SDS011;7922;43.622;1.476;2023-08-06T03:06:28;8.27;;;2.73;;
15645;SDS011;7922;43.622;1.476;2023-08-06T03:08:54;10.40;;;3.00;;
15645;SDS011;7922;43.622;1.476;2023-08-06T03:11:19;9.20;;;3.43;;
15645;SDS011;7922;43.622;1.476;2023-08-06T03:13:45;6.37;;;2.67;;
15645;SDS011;7922;43.622;1.476;2023-08-06T03:16:10;12.53;;;3.37;;
15645;SDS011;7922;43.622;1.476;2023-08-06T03:18:35;8.13;;;2.87;;
15645;SDS011;7922;43.622;1.476;2023-08-06T03:21:00;9.43;;;2.30;;
15645;SDS011;7922;43.622;1.476;2023-08-06T03:23:26;9.93;;;2.70;;
15645;SDS011;7922;43.622;1.476;2023-08-06T03:25:51;9.40;;;2.77;;
15645;SDS011;7922;43.622;1.476;2023-08-06T03:28:16;10.03;;;2.70;;
15645;SDS011;7922;43.622;1.476;2023-08-06T03:30:42;11.97;;;2.80;;
15645;SDS011;7922;43.622;1.476;2023-08-06T03:33:07;8.73;;;2.27;;
15645;SDS011;7922;43.622;1.476;2023-08-06T03:35:33;8.83;;;2.83;;
15645;SDS011;7922;43.622;1.476;2023-08-06T03:37:58;9.67;;;3.03;;
15645;SDS011;7922;43.622;1.476;2023-08-06T03:40:23;12.47;;;2.73;;
15645;SDS011;7922;43.622;1.476;2023-08-06T03:42:48;11.40;;;2.67;;
15645;SDS011;7922;43.622;1.476;2023-08-06T03:45:14;11.43;;;2.90;;
15645;SDS011;7922;43.622;1.476;2023-08-06T03:47:39;10.40;;;2.97;;
15645;SDS011;7922;43.622;1.476;2023-08-06T03:50:05;9.33;;;2.57;;
15645;SDS011;7922;43.622;1.476;2023-08-06T03:52:31;13.47;;;2.63;;
15645;SDS011;7922;43.622;1.476;2023-08-06T03:54:56;11.37;;;2.93;;
15645;SDS011;7922;43.622;1.476;2023-08-06T03:57:21;9.03;;;2.70;;
15645;SDS011;7922;43.622;1.476;2023-08-06T03:59:47;9.13;;;2.13;;
15645;SDS011;7922;43.622;1.476;2023-08-06T04:02:12;9.97;;;2.87;;
15645;SDS011;7922;43.622;1.476;2023-08-06T04:04:37;10.80;;;3.03;;
15645;SDS011;7922;43.622;1.476;2023-08-06T04:07:03;12.03;;;2.70;;
15645;SDS011;7922;43.622;1.476;2023-08-06T04:09:28;10.13;;;2.47;;
15645;SDS011;7922;43.622;1.476;2023-08-06T04:11:54;12.23;;;3.07;;
15645;SDS011;7922;43.622;1.476;2023-08-06T04:14:19;9.87;;;3.10;;
15645;SDS011;7922;43.622;1.476;2023-08-06T04:16:45;11.73;;;3.07;;
15645;SDS011;7922;43.622;1.476;2023-08-06T04:19:10;11.87;;;3.00;;
15645;SDS011;7922;43.622;1.476;2023-08-06T04:21:35;12.07;;;3.30;;
15645;SDS011;7922;43.622;1.476;2023-08-06T04:24:00;10.43;;;2.70;;
15645;SDS011;7922;43.622;1.476;2023-08-06T04:26:26;9.30;;;2.73;;
15645;SDS011;7922;43.622;1.476;2023-08-06T04:28:51;7.63;;;2.27;;
15645;SDS011;7922;43.622;1.476;2023-08-06T04:31:16;11.80;;;3.07;;
15645;SDS011;7922;43.622;1.476;2023-08-06T04:33:42;12.00;;;2.93;;
15645;SDS011;7922;43.622;1.476;2023-08-06T04:36:07;9.67;;;2.67;;
15645;SDS011;7922;43.622;1.476;2023-08-06T04:38:33;6.53;;;2.53;;
15645;SDS011;7922;43.622;1.476;2023-08-06T04:40:58;12.70;;;2.70;;
15645;SDS011;7922;43.622;1.476;2023-08-06T04:43:23;11.97;;;2.97;;
15645;SDS011;7922;43.622;1.476;2023-08-06T04:45:49;11.60;;;2.20;;
15645;SDS011;7922;43.622;1.476;2023-08-06T04:48:15;11.03;;;3.40;;
15645;SDS011;7922;43.622;1.476;2023-08-06T04:50:47;12.47;;;2.53;;
15645;SDS011;7922;43.622;1.476;2023-08-06T04:53:13;13.50;;;2.73;;
15645;SDS011;7922;43.622;1.476;2023-08-06T04:55:39;10.00;;;2.80;;
15645;SDS011;7922;43.622;1.476;2023-08-06T04:58:05;9.73;;;2.83;;
15645;SDS011;7922;43.622;1.476;2023-08-06T05:00:30;11.80;;;3.23;;
15645;SDS011;7922;43.622;1.476;2023-08-06T05:02:56;17.07;;;3.20;;
15645;SDS011;7922;43.622;1.476;2023-08-06T05:05:21;11.10;;;2.67;;
15645;SDS011;7922;43.622;1.476;2023-08-06T05:07:48;13.30;;;2.70;;
15645;SDS011;7922;43.622;1.476;2023-08-06T05:10:14;10.33;;;2.97;;
15645;SDS011;7922;43.622;1.476;2023-08-06T05:12:40;9.43;;;3.00;;
15645;SDS011;7922;43.622;1.476;2023-08-06T05:15:05;11.97;;;2.90;;
15645;SDS011;7922;43.622;1.476;2023-08-06T05:17:31;11.83;;;2.83;;
15645;SDS011;7922;43.622;1.476;2023-08-06T05:19:56;13.80;;;3.43;;
15645;SDS011;7922;43.622;1.476;2023-08-06T05:22:21;14.73;;;4.03;;
15645;SDS011;7922;43.622;1.476;2023-08-06T05:24:47;13.40;;;2.70;;
15645;SDS011;7922;43.622;1.476;2023-08-06T05:27:12;8.73;;;2.23;;
15645;SDS011;7922;43.622;1.476;2023-08-06T05:29:37;9.23;;;2.40;;
15645;SDS011;7922;43.622;1.476;2023-08-06T05:32:03;11.07;;;2.83;;
15645;SDS011;7922;43.622;1.476;2023-08-06T05:34:28;12.67;;;2.63;;
15645;SDS011;7922;43.622;1.476;2023-08-06T05:36:54;12.03;;;3.10;;
15645;SDS011;7922;43.622;1.476;2023-08-06T05:39:19;11.70;;;2.63;;
15645;SDS011;7922;43.622;1.476;2023-08-06T05:41:44;9.30;;;2.40;;
15645;SDS011;7922;43.622;1.476;2023-08-06T05:44:09;6.50;;;2.00;;
15645;SDS011;7922;43.622;1.476;2023-08-06T05:46:35;9.83;;;2.50;;
15645;SDS011;7922;43.622;1.476;2023-08-06T05:49:00;8.30;;;2.67;;
15645;SDS011;7922;43.622;1.476;2023-08-06T05:51:26;10.20;;;2.93;;
15645;SDS011;7922;43.622;1.476;2023-08-06T05:53:51;11.50;;;2.90;;
15645;SDS011;7922;43.622;1.476;2023-08-06T05:56:17;7.80;;;2.07;;
15645;SDS011;7922;43.622;1.476;2023-08-06T05:58:42;8.27;;;2.30;;
15645;SDS011;7922;43.622;1.476;2023-08-06T06:01:07;10.27;;;2.67;;
15645;SDS011;7922;43.622;1.476;2023-08-06T06:03:32;5.57;;;2.57;;
15645;SDS011;7922;43.622;1.476;2023-08-06T06:05:58;9.07;;;2.60;;
15645;SDS011;7922;43.622;1.476;2023-08-06T06:08:25;8.77;;;2.30;;
15645;SDS011;7922;43.622;1.476;2023-08-06T06:10:51;6.00;;;2.23;;
15645;SDS011;7922;43.622;1.476;2023-08-06T06:13:16;6.27;;;2.33;;
15645;SDS011;7922;43.622;1.476;2023-08-06T06:15:41;8.27;;;2.50;;
15645;SDS011;7922;43.622;1.476;2023-08-06T06:18:07;11.40;;;2.40;;
15645;SDS011;7922;43.622;1.476;2023-08-06T06:20:32;10.87;;;2.43;;
15645;SDS011;7922;43.622;1.476;2023-08-06T06:22:57;17.27;;;3.07;;
15645;SDS011;7922;43.622;1.476;2023-08-06T06:25:23;10.00;;;2.73;;
15645;SDS011;7922;43.622;1.476;2023-08-06T06:27:48;8.27;;;2.33;;
15645;SDS011;7922;43.622;1.476;2023-08-06T06:30:13;10.10;;;3.30;;
15645;SDS011;7922;43.622;1.476;2023-08-06T06:32:38;11.43;;;2.87;;
15645;SDS011;7922;43.622;1.476;2023-08-06T06:35:04;10.67;;;2.97;;
15645;SDS011;7922;43.622;1.476;2023-08-06T06:37:29;12.57;;;3.37;;
15645;SDS011;7922;43.622;1.476;2023-08-06T06:39:55;10.93;;;2.50;;
15645;SDS011;7922;43.622;1.476;2023-08-06T06:42:20;8.73;;;2.83;;
15645;SDS011;7922;43.622;1.476;2023-08-06T06:44:45;14.50;;;2.80;;
15645;SDS011;7922;43.622;1.476;2023-08-06T06:47:10;9.10;;;2.47;;
15645;SDS011;7922;43.622;1.476;2023-08-06T06:49:36;14.17;;;1.97;;
15645;SDS011;7922;43.622;1.476;2023-08-06T06:52:01;11.77;;;2.20;;
15645;SDS011;7922;43.622;1.476;2023-08-06T06:54:26;9.23;;;2.50;;
15645;SDS011;7922;43.622;1.476;2023-08-06T06:56:52;12.23;;;2.27;;
15645;SDS011;7922;43.622;1.476;2023-08-06T06:59:17;11.53;;;2.67;;
15645;SDS011;7922;43.622;1.476;2023-08-06T07:01:42;9.40;;;2.57;;
15645;SDS011;7922;43.622;1.476;2023-08-06T07:04:07;9.93;;;2.60;;
15645;SDS011;7922;43.622;1.476;2023-08-06T07:06:33;7.53;;;2.27;;
15645;SDS011;7922;43.622;1.476;2023-08-06T07:08:58;11.07;;;2.30;;
15645;SDS011;7922;43.622;1.476;2023-08-06T07:11:23;8.53;;;2.73;;
15645;SDS011;7922;43.622;1.476;2023-08-06T07:13:49;9.60;;;2.30;;
15645;SDS011;7922;43.622;1.476;2023-08-06T07:16:20;8.20;;;2.00;;
15645;SDS011;7922;43.622;1.476;2023-08-06T07:18:46;10.03;;;2.40;;
15645;SDS011;7922;43.622;1.476;2023-08-06T07:21:11;10.33;;;2.70;;
15645;SDS011;7922;43.622;1.476;2023-08-06T07:23:36;10.70;;;2.53;;
15645;SDS011;7922;43.622;1.476;2023-08-06T07:26:02;10.53;;;2.57;;
15645;SDS011;7922;43.622;1.476;2023-08-06T07:28:27;9.50;;;1.73;;
15645;SDS011;7922;43.622;1.476;2023-08-06T07:30:52;12.93;;;2.77;;
15645;SDS011;7922;43.622;1.476;2023-08-06T07:33:17;7.43;;;2.40;;
15645;SDS011;7922;43.622;1.476;2023-08-06T07:35:43;7.03;;;1.90;;
15645;SDS011;7922;43.622;1.476;2023-08-06T07:38:08;8.07;;;1.80;;
15645;SDS011;7922;43.622;1.476;2023-08-06T07:40:35;7.10;;;1.77;;
15645;SDS011;7922;43.622;1.476;2023-08-06T07:43:00;9.00;;;1.87;;
15645;SDS011;7922;43.622;1.476;2023-08-06T07:45:26;8.00;;;2.07;;
15645;SDS011;7922;43.622;1.476;2023-08-06T07:47:51;6.90;;;2.30;;
15645;SDS011;7922;43.622;1.476;2023-08-06T07:50:16;7.83;;;1.90;;
15645;SDS011;7922;43.622;1.476;2023-08-06T07:52:41;8.17;;;2.10;;
15645;SDS011;7922;43.622;1.476;2023-08-06T07:55:07;5.17;;;1.70;;
15645;SDS011;7922;43.622;1.476;2023-08-06T07:57:32;7.43;;;2.43;;
15645;SDS011;7922;43.622;1.476;2023-08-06T07:59:58;6.37;;;2.07;;
15645;SDS011;7922;43.622;1.476;2023-08-06T08:02:24;7.70;;;2.10;;
15645;SDS011;7922;43.622;1.476;2023-08-06T08:04:49;8.10;;;2.23;;
15645;SDS011;7922;43.622;1.476;2023-08-06T08:07:14;6.13;;;2.40;;
15645;SDS011;7922;43.622;1.476;2023-08-06T08:09:40;8.47;;;2.33;;
15645;SDS011;7922;43.622;1.476;2023-08-06T08:12:05;8.80;;;2.33;;
15645;SDS011;7922;43.622;1.476;2023-08-06T08:14:31;7.20;;;2.10;;
15645;SDS011;7922;43.622;1.476;2023-08-06T08:16:56;8.57;;;2.17;;
15645;SDS011;7922;43.622;1.476;2023-08-06T08:19:21;12.97;;;3.00;;
15645;SDS011;7922;43.622;1.476;2023-08-06T08:21:46;7.60;;;2.30;;
15645;SDS011;7922;43.622;1.476;2023-08-06T08:24:12;4.17;;;1.90;;
15645;SDS011;7922;43.622;1.476;2023-08-06T08:26:37;8.90;;;2.20;;
15645;SDS011;7922;43.622;1.476;2023-08-06T08:29:02;9.20;;;2.20;;
15645;SDS011;7922;43.622;1.476;2023-08-06T08:31:28;7.50;;;1.60;;
15645;SDS011;7922;43.622;1.476;2023-08-06T08:33:53;5.77;;;1.90;;
15645;SDS011;7922;43.622;1.476;2023-08-06T08:36:18;7.40;;;1.70;;
15645;SDS011;7922;43.622;1.476;2023-08-06T08:38:43;7.83;;;2.10;;
15645;SDS011;7922;43.622;1.476;2023-08-06T08:41:09;7.80;;;2.27;;
15645;SDS011;7922;43.622;1.476;2023-08-06T08:43:35;6.07;;;1.80;;
15645;SDS011;7922;43.622;1.476;2023-08-06T08:46:01;8.47;;;2.10;;
15645;SDS011;7922;43.622;1.476;2023-08-06T08:48:28;7.67;;;1.60;;
15645;SDS011;7922;43.622;1.476;2023-08-06T08:50:54;5.10;;;1.90;;
15645;SDS011;7922;43.622;1.476;2023-08-06T08:53:21;5.70;;;2.10;;
15645;SDS011;7922;43.622;1.476;2023-08-06T08:55:47;8.07;;;2.33;;
15645;SDS011;7922;43.622;1.476;2023-08-06T08:58:14;5.90;;;2.37;;
15645;SDS011;7922;43.622;1.476;2023-08-06T09:00:43;6.67;;;2.40;;
15645;SDS011;7922;43.622;1.476;2023-08-06T09:03:11;6.87;;;1.97;;
15645;SDS011;7922;43.622;1.476;2023-08-06T09:05:36;5.70;;;2.03;;
15645;SDS011;7922;43.622;1.476;2023-08-06T09:08:08;7.13;;;1.93;;
15645;SDS011;7922;43.622;1.476;2023-08-06T09:10:36;6.83;;;2.00;;
15645;SDS011;7922;43.622;1.476;2023-08-06T09:13:01;6.33;;;2.10;;
15645;SDS011;7922;43.622;1.476;2023-08-06T09:15:27;10.53;;;2.40;;
15645;SDS011;7922;43.622;1.476;2023-08-06T09:17:53;6.97;;;1.60;;
15645;SDS011;7922;43.622;1.476;2023-08-06T09:20:19;7.57;;;1.83;;
15645;SDS011;7922;43.622;1.476;2023-08-06T09:22:45;4.93;;;1.63;;
15645;SDS011;7922;43.622;1.476;2023-08-06T09:25:10;7.13;;;1.80;;
15645;SDS011;7922;43.622;1.476;2023-08-06T09:27:36;6.67;;;2.33;;
15645;SDS011;7922;43.622;1.476;2023-08-06T09:30:02;9.83;;;2.67;;
15645;SDS011;7922;43.622;1.476;2023-08-06T09:32:28;7.10;;;2.00;;
15645;SDS011;7922;43.622;1.476;2023-08-06T09:35:14;6.80;;;1.90;;
15645;SDS011;7922;43.622;1.476;2023-08-06T09:37:40;8.83;;;2.20;;
15645;SDS011;7922;43.622;1.476;2023-08-06T09:40:22;4.67;;;1.30;;
15645;SDS011;7922;43.622;1.476;2023-08-06T09:42:49;7.17;;;1.87;;
15645;SDS011;7922;43.622;1.476;2023-08-06T09:45:15;7.23;;;1.70;;
15645;SDS011;7922;43.622;1.476;2023-08-06T09:47:42;8.97;;;2.10;;
15645;SDS011;7922;43.622;1.476;2023-08-06T09:50:20;7.67;;;2.17;;
15645;SDS011;7922;43.622;1.476;2023-08-06T09:52:48;7.40;;;2.37;;
15645;SDS011;7922;43.622;1.476;2023-08-06T09:55:17;6.70;;;1.80;;
15645;SDS011;7922;43.622;1.476;2023-08-06T09:57:43;5.03;;;1.83;;
15645;SDS011;7922;43.622;1.476;2023-08-06T10:00:09;5.67;;;1.83;;
15645;SDS011;7922;43.622;1.476;2023-08-06T10:02:36;8.47;;;2.00;;
15645;SDS011;7922;43.622;1.476;2023-08-06T10:05:03;6.43;;;1.87;;
15645;SDS011;7922;43.622;1.476;2023-08-06T10:07:29;5.70;;;1.83;;
15645;SDS011;7922;43.622;1.476;2023-08-06T10:09:55;6.33;;;1.83;;
15645;SDS011;7922;43.622;1.476;2023-08-06T10:12:21;5.93;;;1.77;;
15645;SDS011;7922;43.622;1.476;2023-08-06T10:14:48;7.40;;;2.00;;
15645;SDS011;7922;43.622;1.476;2023-08-06T10:17:14;4.53;;;1.50;;
15645;SDS011;7922;43.622;1.476;2023-08-06T10:19:41;5.90;;;2.00;;
15645;SDS011;7922;43.622;1.476;2023-08-06T10:22:17;3.27;;;1.63;;
15645;SDS011;7922;43.622;1.476;2023-08-06T10:27:11;4.97;;;1.47;;
15645;SDS011;7922;43.622;1.476;2023-08-06T10:29:37;5.03;;;1.40;;
15645;SDS011;7922;43.622;1.476;2023-08-06T10:32:03;3.77;;;1.53;;
15645;SDS011;7922;43.622;1.476;2023-08-06T10:37:19;5.33;;;1.93;;
15645;SDS011;7922;43.622;1.476;2023-08-06T10:39:51;4.47;;;1.57;;
15645;SDS011;7922;43.622;1.476;2023-08-06T10:42:20;5.97;;;1.87;;
15645;SDS011;7922;43.622;1.476;2023-08-06T10:47:45;2.93;;;1.63;;
15645;SDS011;7922;43.622;1.476;2023-08-06T10:50:14;5.60;;;1.73;;
15645;SDS011;7922;43.622;1.476;2023-08-06T10:52:41;6.20;;;2.27;;
15645;SDS011;7922;43.622;1.476;2023-08-06T10:55:07;5.57;;;2.07;;
15645;SDS011;7922;43.622;1.476;2023-08-06T10:57:32;5.17;;;1.70;;
15645;SDS011;7922;43.622;1.476;2023-08-06T10:59:58;8.23;;;2.47;;
15645;SDS011;7922;43.622;1.476;2023-08-06T11:02:23;6.50;;;2.40;;
15645;SDS011;7922;43.622;1.476;2023-08-06T11:04:48;4.33;;;2.00;;
15645;SDS011;7922;43.622;1.476;2023-08-06T11:07:13;4.20;;;1.63;;
15645;SDS011;7922;43.622;1.476;2023-08-06T11:09:39;3.93;;;1.70;;
15645;SDS011;7922;43.622;1.476;2023-08-06T11:12:10;5.30;;;1.67;;
15645;SDS011;7922;43.622;1.476;2023-08-06T11:14:36;6.57;;;2.13;;
15645;SDS011;7922;43.622;1.476;2023-08-06T11:17:01;5.27;;;1.63;;
15645;SDS011;7922;43.622;1.476;2023-08-06T11:19:27;4.57;;;1.73;;
15645;SDS011;7922;43.622;1.476;2023-08-06T11:21:56;5.23;;;1.90;;
15645;SDS011;7922;43.622;1.476;2023-08-06T11:24:23;6.60;;;1.67;;
15645;SDS011;7922;43.622;1.476;2023-08-06T11:26:49;3.90;;;1.53;;
15645;SDS011;7922;43.622;1.476;2023-08-06T11:29:15;5.10;;;2.03;;
15645;SDS011;7922;43.622;1.476;2023-08-06T11:31:40;5.27;;;1.90;;
15645;SDS011;7922;43.622;1.476;2023-08-06T11:34:06;5.00;;;2.13;;
15645;SDS011;7922;43.622;1.476;2023-08-06T11:36:36;3.40;;;1.73;;
15645;SDS011;7922;43.622;1.476;2023-08-06T11:39:05;4.40;;;1.90;;
15645;SDS011;7922;43.622;1.476;2023-08-06T11:41:30;5.93;;;1.97;;
15645;SDS011;7922;43.622;1.476;2023-08-06T11:43:56;5.00;;;2.40;;
15645;SDS011;7922;43.622;1.476;2023-08-06T11:46:25;4.83;;;1.93;;
15645;SDS011;7922;43.622;1.476;2023-08-06T11:48:54;4.77;;;2.00;;
15645;SDS011;7922;43.622;1.476;2023-08-06T11:51:23;3.27;;;1.43;;
15645;SDS011;7922;43.622;1.476;2023-08-06T11:53:49;3.30;;;1.47;;
15645;SDS011;7922;43.622;1.476;2023-08-06T11:56:15;4.27;;;1.70;;
15645;SDS011;7922;43.622;1.476;2023-08-06T11:58:41;2.80;;;1.33;;
15645;SDS011;7922;43.622;1.476;2023-08-06T12:01:07;5.87;;;1.93;;
15645;SDS011;7922;43.622;1.476;2023-08-06T12:03:32;4.43;;;1.60;;
15645;SDS011;7922;43.622;1.476;2023-08-06T12:05:57;4.80;;;1.70;;
15645;SDS011;7922;43.622;1.476;2023-08-06T12:08:26;3.30;;;1.60;;
15645;SDS011;7922;43.622;1.476;2023-08-06T12:10:51;4.97;;;1.60;;
15645;SDS011;7922;43.622;1.476;2023-08-06T12:13:17;2.93;;;1.53;;
15645;SDS011;7922;43.622;1.476;2023-08-06T12:15:44;3.13;;;1.80;;
15645;SDS011;7922;43.622;1.476;2023-08-06T12:18:10;5.67;;;1.70;;
15645;SDS011;7922;43.622;1.476;2023-08-06T12:20:35;2.70;;;1.50;;
15645;SDS011;7922;43.622;1.476;2023-08-06T12:23:00;4.30;;;1.63;;
15645;SDS011;7922;43.622;1.476;2023-08-06T12:25:26;3.53;;;1.60;;
15645;SDS011;7922;43.622;1.476;2023-08-06T12:27:51;4.30;;;1.60;;
15645;SDS011;7922;43.622;1.476;2023-08-06T12:30:16;5.07;;;1.60;;
15645;SDS011;7922;43.622;1.476;2023-08-06T12:32:42;3.90;;;1.80;;
15645;SDS011;7922;43.622;1.476;2023-08-06T12:35:07;4.60;;;1.60;;
15645;SDS011;7922;43.622;1.476;2023-08-06T12:37:33;4.63;;;1.67;;
15645;SDS011;7922;43.622;1.476;2023-08-06T12:39:59;1.87;;;1.33;;
15645;SDS011;7922;43.622;1.476;2023-08-06T12:42:24;3.07;;;1.37;;
15645;SDS011;7922;43.622;1.476;2023-08-06T12:44:50;4.33;;;1.73;;
15645;SDS011;7922;43.622;1.476;2023-08-06T12:47:16;4.67;;;1.80;;
15645;SDS011;7922;43.622;1.476;2023-08-06T12:49:42;2.57;;;1.20;;
15645;SDS011;7922;43.622;1.476;2023-08-06T12:52:07;4.93;;;1.60;;
15645;SDS011;7922;43.622;1.476;2023-08-06T12:54:32;7.50;;;1.67;;
15645;SDS011;7922;43.622;1.476;2023-08-06T12:56:58;2.90;;;1.40;;
15645;SDS011;7922;43.622;1.476;2023-08-06T12:59:23;4.50;;;2.03;;
15645;SDS011;7922;43.622;1.476;2023-08-06T13:01:48;5.47;;;1.53;;
15645;SDS011;7922;43.622;1.476;2023-08-06T13:04:14;5.20;;;1.77;;
15645;SDS011;7922;43.622;1.476;2023-08-06T13:06:39;3.63;;;1.80;;
15645;SDS011;7922;43.622;1.476;2023-08-06T13:09:07;4.43;;;1.57;;
15645;SDS011;7922;43.622;1.476;2023-08-06T13:11:34;5.37;;;2.10;;
15645;SDS011;7922;43.622;1.476;2023-08-06T13:14:03;4.77;;;1.67;;
15645;SDS011;7922;43.622;1.476;2023-08-06T13:16:30;3.07;;;1.50;;
15645;SDS011;7922;43.622;1.476;2023-08-06T13:18:55;3.70;;;1.53;;
15645;SDS011;7922;43.622;1.476;2023-08-06T13:21:21;5.17;;;1.60;;
15645;SDS011;7922;43.622;1.476;2023-08-06T13:23:46;3.93;;;1.60;;
15645;SDS011;7922;43.622;1.476;2023-08-06T13:26:11;4.23;;;1.50;;
15645;SDS011;7922;43.622;1.476;2023-08-06T13:28:37;3.07;;;1.53;;
15645;SDS011;7922;43.622;1.476;2023-08-06T13:31:02;3.43;;;1.80;;
15645;SDS011;7922;43.622;1.476;2023-08-06T13:33:27;5.10;;;1.50;;
15645;SDS011;7922;43.622;1.476;2023-08-06T13:35:53;3.97;;;1.20;;
15645;SDS011;7922;43.622;1.476;2023-08-06T13:38:18;6.23;;;2.30;;
15645;SDS011;7922;43.622;1.476;2023-08-06T13:40:43;7.40;;;1.97;;
15645;SDS011;7922;43.622;1.476;2023-08-06T13:43:08;3.20;;;1.60;;
15645;SDS011;7922;43.622;1.476;2023-08-06T13:45:34;5.10;;;2.00;;
15645;SDS011;7922;43.622;1.476;2023-08-06T13:47:59;5.03;;;1.67;;
15645;SDS011;7922;43.622;1.476;2023-08-06T13:50:24;4.57;;;1.47;;
15645;SDS011;7922;43.622;1.476;2023-08-06T13:52:49;4.40;;;1.63;;
15645;SDS011;7922;43.622;1.476;2023-08-06T13:55:15;4.13;;;1.63;;
15645;SDS011;7922;43.622;1.476;2023-08-06T13:57:40;4.60;;;1.93;;
15645;SDS011;7922;43.622;1.476;2023-08-06T14:00:05;5.30;;;1.63;;
15645;SDS011;7922;43.622;1.476;2023-08-06T14:02:31;5.20;;;1.80;;
15645;SDS011;7922;43.622;1.476;2023-08-06T14:04:56;5.60;;;1.60;;
15645;SDS011;7922;43.622;1.476;2023-08-06T14:07:22;3.30;;;1.63;;
15645;SDS011;7922;43.622;1.476;2023-08-06T14:09:47;3.47;;;1.53;;
15645;SDS011;7922;43.622;1.476;2023-08-06T14:12:13;4.57;;;1.97;;
15645;SDS011;7922;43.622;1.476;2023-08-06T14:14:39;5.37;;;1.40;;
15645;SDS011;7922;43.622;1.476;2023-08-06T14:17:04;4.53;;;1.50;;
15645;SDS011;7922;43.622;1.476;2023-08-06T14:19:30;4.40;;;1.80;;
15645;SDS011;7922;43.622;1.476;2023-08-06T14:21:55;3.80;;;1.80;;
15645;SDS011;7922;43.622;1.476;2023-08-06T14:24:20;2.83;;;1.90;;
15645;SDS011;7922;43.622;1.476;2023-08-06T14:26:46;4.37;;;1.80;;
15645;SDS011;7922;43.622;1.476;2023-08-06T14:29:11;3.93;;;1.73;;
15645;SDS011;7922;43.622;1.476;2023-08-06T14:31:36;3.80;;;1.83;;
15645;SDS011;7922;43.622;1.476;2023-08-06T14:34:01;5.27;;;1.43;;
15645;SDS011;7922;43.622;1.476;2023-08-06T14:36:27;6.10;;;2.13;;
15645;SDS011;7922;43.622;1.476;2023-08-06T14:38:52;5.20;;;1.90;;
15645;SDS011;7922;43.622;1.476;2023-08-06T14:41:17;3.13;;;1.83;;
15645;SDS011;7922;43.622;1.476;2023-08-06T14:43:43;4.67;;;2.00;;
15645;SDS011;7922;43.622;1.476;2023-08-06T14:46:08;4.37;;;1.80;;
15645;SDS011;7922;43.622;1.476;2023-08-06T14:48:33;5.03;;;1.97;;
15645;SDS011;7922;43.622;1.476;2023-08-06T14:50:59;3.47;;;1.60;;
15645;SDS011;7922;43.622;1.476;2023-08-06T14:53:24;3.63;;;1.70;;
15645;SDS011;7922;43.622;1.476;2023-08-06T14:55:49;5.03;;;2.17;;
15645;SDS011;7922;43.622;1.476;2023-08-06T14:58:14;3.37;;;1.70;;
15645;SDS011;7922;43.622;1.476;2023-08-06T15:00:40;4.60;;;1.93;;
15645;SDS011;7922;43.622;1.476;2023-08-06T15:03:05;3.47;;;1.80;;
15645;SDS011;7922;43.622;1.476;2023-08-06T15:05:31;5.33;;;1.67;;